Abuja, Nigeria
Current Conditions -  °F | °C
As of 7:00 AM on Thursday 29 Jan 2015 (Local Time) from DNAA Reporting Station
Haze Haze  
Wind Chill: 70°   Ceiling: Unl
Heat Index: 70°   Visibility: 3mi
Dew Point: 46°   Wind: 5mph
Humidity: 43%   Direction: 100°E
Pressure: 29.88"   Gusts: NA
Location:  9.18°N, 7.17°E
Report Text: DNAA 290600Z 10004KT 5000 HZ NSC 21/08 Q1012 TEMPO 3000
Loading
Personal Weather Stations






























Interactive Weather Map New forecast layout! Learn more

10-Day Weather Forecast

Advertisements
Track Severe Weather on mobile